sensor_id;sensor_type;location;lat;lon;timestamp;P1;durP1;ratioP1;P2;durP2;ratioP2
31238;SDS011;17871;31.584;74.450;2023-12-29T00:01:19;255.38;;;73.85;;
31238;SDS011;17871;31.584;74.450;2023-12-29T00:03:49;252.05;;;74.63;;
31238;SDS011;17871;31.584;74.450;2023-12-29T00:06:18;210.85;;;68.55;;
31238;SDS011;17871;31.584;74.450;2023-12-29T00:08:48;243.52;;;73.93;;
31238;SDS011;17871;31.584;74.450;2023-12-29T00:11:20;224.50;;;73.53;;
31238;SDS011;17871;31.584;74.450;2023-12-29T00:13:51;241.43;;;71.20;;
31238;SDS011;17871;31.584;74.450;2023-12-29T00:16:20;247.75;;;72.05;;
31238;SDS011;17871;31.584;74.450;2023-12-29T00:18:49;221.68;;;70.75;;
31238;SDS011;17871;31.584;74.450;2023-12-29T00:21:19;252.85;;;71.28;;
31238;SDS011;17871;31.584;74.450;2023-12-29T00:23:50;211.80;;;68.10;;
31238;SDS011;17871;31.584;74.450;2023-12-29T00:26:19;233.23;;;72.18;;
31238;SDS011;17871;31.584;74.450;2023-12-29T00:28:54;242.43;;;70.18;;
31238;SDS011;17871;31.584;74.450;2023-12-29T00:31:23;234.88;;;71.90;;
31238;SDS011;17871;31.584;74.450;2023-12-29T00:33:53;217.98;;;69.25;;
31238;SDS011;17871;31.584;74.450;2023-12-29T00:36:22;223.20;;;67.50;;
31238;SDS011;17871;31.584;74.450;2023-12-29T00:38:52;199.50;;;66.53;;
31238;SDS011;17871;31.584;74.450;2023-12-29T00:41:21;223.77;;;65.65;;
31238;SDS011;17871;31.584;74.450;2023-12-29T00:43:51;234.82;;;67.00;;
31238;SDS011;17871;31.584;74.450;2023-12-29T00:46:20;211.10;;;63.67;;
31238;SDS011;17871;31.584;74.450;2023-12-29T00:48:50;215.65;;;66.68;;
31238;SDS011;17871;31.584;74.450;2023-12-29T00:51:19;204.52;;;65.07;;
31238;SDS011;17871;31.584;74.450;2023-12-29T00:53:49;198.75;;;64.18;;
31238;SDS011;17871;31.584;74.450;2023-12-29T00:56:18;205.95;;;79.38;;
31238;SDS011;17871;31.584;74.450;2023-12-29T00:58:48;220.07;;;67.53;;
31238;SDS011;17871;31.584;74.450;2023-12-29T01:01:19;201.18;;;65.53;;
31238;SDS011;17871;31.584;74.450;2023-12-29T01:03:48;223.32;;;66.97;;
31238;SDS011;17871;31.584;74.450;2023-12-29T01:06:18;225.60;;;65.70;;
31238;SDS011;17871;31.584;74.450;2023-12-29T01:08:47;206.27;;;64.00;;
31238;SDS011;17871;31.584;74.450;2023-12-29T01:11:17;203.48;;;64.18;;
31238;SDS011;17871;31.584;74.450;2023-12-29T01:13:47;187.90;;;59.50;;
31238;SDS011;17871;31.584;74.450;2023-12-29T01:16:16;179.60;;;58.97;;
31238;SDS011;17871;31.584;74.450;2023-12-29T01:18:46;190.85;;;60.20;;
31238;SDS011;17871;31.584;74.450;2023-12-29T01:21:16;182.80;;;58.03;;
31238;SDS011;17871;31.584;74.450;2023-12-29T01:23:45;176.98;;;55.38;;
31238;SDS011;17871;31.584;74.450;2023-12-29T01:26:14;174.57;;;56.85;;
31238;SDS011;17871;31.584;74.450;2023-12-29T01:28:44;139.80;;;50.25;;
31238;SDS011;17871;31.584;74.450;2023-12-29T01:31:13;143.57;;;48.35;;
31238;SDS011;17871;31.584;74.450;2023-12-29T01:33:43;149.18;;;51.60;;
31238;SDS011;17871;31.584;74.450;2023-12-29T01:36:19;167.50;;;51.40;;
31238;SDS011;17871;31.584;74.450;2023-12-29T01:38:52;156.82;;;52.72;;
31238;SDS011;17871;31.584;74.450;2023-12-29T01:41:22;156.13;;;51.35;;
31238;SDS011;17871;31.584;74.450;2023-12-29T01:46:24;135.05;;;47.97;;
31238;SDS011;17871;31.584;74.450;2023-12-29T01:48:54;156.70;;;49.42;;
31238;SDS011;17871;31.584;74.450;2023-12-29T01:51:24;143.70;;;49.92;;
31238;SDS011;17871;31.584;74.450;2023-12-29T01:53:55;135.75;;;46.47;;
31238;SDS011;17871;31.584;74.450;2023-12-29T01:56:26;126.50;;;44.55;;
31238;SDS011;17871;31.584;74.450;2023-12-29T01:58:55;167.45;;;48.42;;
31238;SDS011;17871;31.584;74.450;2023-12-29T02:01:37;130.63;;;44.83;;
31238;SDS011;17871;31.584;74.450;2023-12-29T02:04:11;129.32;;;46.55;;
31238;SDS011;17871;31.584;74.450;2023-12-29T02:06:41;123.32;;;44.35;;
31238;SDS011;17871;31.584;74.450;2023-12-29T02:09:11;132.90;;;45.08;;
31238;SDS011;17871;31.584;74.450;2023-12-29T02:11:48;109.60;;;42.50;;
31238;SDS011;17871;31.584;74.450;2023-12-29T02:14:18;116.75;;;44.65;;
31238;SDS011;17871;31.584;74.450;2023-12-29T02:19:38;119.05;;;43.92;;
31238;SDS011;17871;31.584;74.450;2023-12-29T02:22:08;117.88;;;41.78;;
31238;SDS011;17871;31.584;74.450;2023-12-29T02:24:38;133.68;;;44.58;;
31238;SDS011;17871;31.584;74.450;2023-12-29T02:29:43;134.85;;;45.00;;
31238;SDS011;17871;31.584;74.450;2023-12-29T02:32:13;132.85;;;45.58;;
31238;SDS011;17871;31.584;74.450;2023-12-29T02:34:46;142.05;;;48.03;;
31238;SDS011;17871;31.584;74.450;2023-12-29T02:37:17;143.27;;;48.97;;
31238;SDS011;17871;31.584;74.450;2023-12-29T02:39:48;139.40;;;48.55;;
31238;SDS011;17871;31.584;74.450;2023-12-29T02:42:17;133.15;;;46.90;;
31238;SDS011;17871;31.584;74.450;2023-12-29T02:44:47;131.48;;;45.38;;
31238;SDS011;17871;31.584;74.450;2023-12-29T02:47:16;127.20;;;43.42;;
31238;SDS011;17871;31.584;74.450;2023-12-29T02:49:48;115.25;;;41.47;;
31238;SDS011;17871;31.584;74.450;2023-12-29T02:52:19;122.28;;;43.08;;
31238;SDS011;17871;31.584;74.450;2023-12-29T02:54:48;115.68;;;42.28;;
31238;SDS011;17871;31.584;74.450;2023-12-29T02:57:18;113.97;;;41.58;;
31238;SDS011;17871;31.584;74.450;2023-12-29T02:59:47;122.53;;;42.00;;
31238;SDS011;17871;31.584;74.450;2023-12-29T03:02:17;118.85;;;42.72;;
31238;SDS011;17871;31.584;74.450;2023-12-29T03:04:47;107.75;;;41.05;;
31238;SDS011;17871;31.584;74.450;2023-12-29T03:07:17;120.15;;;40.97;;
31238;SDS011;17871;31.584;74.450;2023-12-29T03:09:46;149.80;;;42.08;;
31238;SDS011;17871;31.584;74.450;2023-12-29T03:12:16;165.65;;;43.83;;
31238;SDS011;17871;31.584;74.450;2023-12-29T03:14:46;129.02;;;42.75;;
31238;SDS011;17871;31.584;74.450;2023-12-29T03:17:15;120.35;;;43.50;;
31238;SDS011;17871;31.584;74.450;2023-12-29T03:19:45;133.55;;;43.83;;
31238;SDS011;17871;31.584;74.450;2023-12-29T03:22:14;144.63;;;44.53;;
31238;SDS011;17871;31.584;74.450;2023-12-29T03:24:44;130.70;;;45.53;;
31238;SDS011;17871;31.584;74.450;2023-12-29T03:27:13;143.38;;;48.33;;
31238;SDS011;17871;31.584;74.450;2023-12-29T03:29:43;152.70;;;50.28;;
31238;SDS011;17871;31.584;74.450;2023-12-29T03:32:12;147.20;;;47.10;;
31238;SDS011;17871;31.584;74.450;2023-12-29T03:34:41;145.77;;;48.70;;
31238;SDS011;17871;31.584;74.450;2023-12-29T03:37:11;138.60;;;45.45;;
31238;SDS011;17871;31.584;74.450;2023-12-29T03:39:41;141.15;;;45.20;;
31238;SDS011;17871;31.584;74.450;2023-12-29T03:42:11;136.75;;;44.40;;
31238;SDS011;17871;31.584;74.450;2023-12-29T03:44:40;122.50;;;43.97;;
31238;SDS011;17871;31.584;74.450;2023-12-29T03:47:09;146.82;;;44.60;;
31238;SDS011;17871;31.584;74.450;2023-12-29T03:49:39;126.05;;;44.33;;
31238;SDS011;17871;31.584;74.450;2023-12-29T03:52:09;135.63;;;45.80;;
31238;SDS011;17871;31.584;74.450;2023-12-29T03:54:39;147.35;;;46.92;;
31238;SDS011;17871;31.584;74.450;2023-12-29T03:57:08;118.05;;;41.92;;
31238;SDS011;17871;31.584;74.450;2023-12-29T03:59:39;128.55;;;40.42;;
31238;SDS011;17871;31.584;74.450;2023-12-29T04:02:09;113.85;;;39.83;;
31238;SDS011;17871;31.584;74.450;2023-12-29T04:04:38;135.82;;;44.72;;
31238;SDS011;17871;31.584;74.450;2023-12-29T04:07:08;128.05;;;42.28;;
31238;SDS011;17871;31.584;74.450;2023-12-29T04:09:37;124.93;;;41.72;;
31238;SDS011;17871;31.584;74.450;2023-12-29T04:12:07;113.90;;;41.22;;
31238;SDS011;17871;31.584;74.450;2023-12-29T04:14:37;120.03;;;43.55;;
31238;SDS011;17871;31.584;74.450;2023-12-29T04:17:06;122.85;;;44.08;;
31238;SDS011;17871;31.584;74.450;2023-12-29T04:19:43;117.53;;;41.97;;
31238;SDS011;17871;31.584;74.450;2023-12-29T04:22:12;113.22;;;42.85;;
31238;SDS011;17871;31.584;74.450;2023-12-29T04:24:42;121.90;;;43.83;;
31238;SDS011;17871;31.584;74.450;2023-12-29T04:27:11;124.43;;;42.53;;
31238;SDS011;17871;31.584;74.450;2023-12-29T04:29:40;121.20;;;43.20;;
31238;SDS011;17871;31.584;74.450;2023-12-29T04:32:10;123.95;;;46.15;;
31238;SDS011;17871;31.584;74.450;2023-12-29T04:34:39;122.90;;;44.90;;
31238;SDS011;17871;31.584;74.450;2023-12-29T04:37:09;125.47;;;41.75;;
31238;SDS011;17871;31.584;74.450;2023-12-29T04:39:38;131.40;;;41.83;;
31238;SDS011;17871;31.584;74.450;2023-12-29T04:42:08;131.52;;;46.47;;
31238;SDS011;17871;31.584;74.450;2023-12-29T04:44:37;122.15;;;43.60;;
31238;SDS011;17871;31.584;74.450;2023-12-29T04:47:06;130.70;;;44.65;;
31238;SDS011;17871;31.584;74.450;2023-12-29T04:49:37;102.95;;;43.55;;
31238;SDS011;17871;31.584;74.450;2023-12-29T04:52:06;127.78;;;43.30;;
31238;SDS011;17871;31.584;74.450;2023-12-29T04:54:36;125.57;;;45.80;;
31238;SDS011;17871;31.584;74.450;2023-12-29T04:57:05;134.18;;;46.47;;
31238;SDS011;17871;31.584;74.450;2023-12-29T04:59:34;142.05;;;45.85;;
31238;SDS011;17871;31.584;74.450;2023-12-29T05:02:04;120.63;;;46.65;;
31238;SDS011;17871;31.584;74.450;2023-12-29T05:04:34;128.23;;;44.92;;
31238;SDS011;17871;31.584;74.450;2023-12-29T05:07:08;143.98;;;50.65;;
31238;SDS011;17871;31.584;74.450;2023-12-29T05:09:37;126.15;;;46.45;;
31238;SDS011;17871;31.584;74.450;2023-12-29T05:12:07;146.10;;;46.67;;
31238;SDS011;17871;31.584;74.450;2023-12-29T05:14:36;165.80;;;49.20;;
31238;SDS011;17871;31.584;74.450;2023-12-29T05:17:06;156.35;;;49.20;;
31238;SDS011;17871;31.584;74.450;2023-12-29T05:19:37;154.10;;;48.78;;
31238;SDS011;17871;31.584;74.450;2023-12-29T05:22:07;142.80;;;47.88;;
31238;SDS011;17871;31.584;74.450;2023-12-29T05:24:36;132.50;;;44.83;;
31238;SDS011;17871;31.584;74.450;2023-12-29T05:27:06;146.60;;;48.78;;
31238;SDS011;17871;31.584;74.450;2023-12-29T05:29:35;137.40;;;45.25;;
31238;SDS011;17871;31.584;74.450;2023-12-29T05:32:05;127.60;;;46.83;;
31238;SDS011;17871;31.584;74.450;2023-12-29T05:34:35;132.63;;;44.40;;
31238;SDS011;17871;31.584;74.450;2023-12-29T05:37:04;141.68;;;45.60;;
31238;SDS011;17871;31.584;74.450;2023-12-29T05:39:34;130.68;;;47.15;;
31238;SDS011;17871;31.584;74.450;2023-12-29T05:42:04;128.55;;;48.05;;
31238;SDS011;17871;31.584;74.450;2023-12-29T05:44:36;142.45;;;46.15;;
31238;SDS011;17871;31.584;74.450;2023-12-29T05:47:06;154.60;;;49.08;;
31238;SDS011;17871;31.584;74.450;2023-12-29T05:49:35;110.47;;;43.00;;
31238;SDS011;17871;31.584;74.450;2023-12-29T05:52:08;122.32;;;43.53;;
31238;SDS011;17871;31.584;74.450;2023-12-29T05:54:37;114.13;;;43.45;;
31238;SDS011;17871;31.584;74.450;2023-12-29T05:57:07;135.07;;;45.10;;
31238;SDS011;17871;31.584;74.450;2023-12-29T05:59:36;120.55;;;43.08;;
31238;SDS011;17871;31.584;74.450;2023-12-29T06:02:06;110.65;;;40.75;;
31238;SDS011;17871;31.584;74.450;2023-12-29T06:04:35;146.98;;;41.70;;
31238;SDS011;17871;31.584;74.450;2023-12-29T06:07:05;108.13;;;41.90;;
31238;SDS011;17871;31.584;74.450;2023-12-29T06:09:34;122.32;;;42.75;;
31238;SDS011;17871;31.584;74.450;2023-12-29T06:12:04;114.38;;;42.67;;
31238;SDS011;17871;31.584;74.450;2023-12-29T06:14:36;132.57;;;45.92;;
31238;SDS011;17871;31.584;74.450;2023-12-29T06:17:05;121.75;;;43.45;;
31238;SDS011;17871;31.584;74.450;2023-12-29T06:19:34;115.57;;;43.65;;
31238;SDS011;17871;31.584;74.450;2023-12-29T06:22:04;131.90;;;45.40;;
31238;SDS011;17871;31.584;74.450;2023-12-29T06:24:33;135.23;;;47.13;;
31238;SDS011;17871;31.584;74.450;2023-12-29T06:27:03;116.80;;;45.67;;
31238;SDS011;17871;31.584;74.450;2023-12-29T06:29:32;140.20;;;47.40;;
31238;SDS011;17871;31.584;74.450;2023-12-29T06:32:05;127.00;;;47.05;;
31238;SDS011;17871;31.584;74.450;2023-12-29T06:34:35;138.50;;;47.58;;
31238;SDS011;17871;31.584;74.450;2023-12-29T06:40:07;163.63;;;53.85;;
31238;SDS011;17871;31.584;74.450;2023-12-29T06:42:37;143.52;;;50.50;;
31238;SDS011;17871;31.584;74.450;2023-12-29T06:45:08;166.40;;;51.90;;
31238;SDS011;17871;31.584;74.450;2023-12-29T06:47:37;152.57;;;52.55;;
31238;SDS011;17871;31.584;74.450;2023-12-29T06:50:07;153.60;;;49.05;;
31238;SDS011;17871;31.584;74.450;2023-12-29T06:52:41;141.95;;;50.83;;
31238;SDS011;17871;31.584;74.450;2023-12-29T06:55:11;128.73;;;47.40;;
31238;SDS011;17871;31.584;74.450;2023-12-29T06:57:41;130.80;;;46.72;;
31238;SDS011;17871;31.584;74.450;2023-12-29T07:00:10;132.95;;;45.97;;
31238;SDS011;17871;31.584;74.450;2023-12-29T07:02:40;129.07;;;48.50;;
31238;SDS011;17871;31.584;74.450;2023-12-29T07:05:09;134.15;;;48.78;;
31238;SDS011;17871;31.584;74.450;2023-12-29T07:07:38;157.90;;;53.08;;
31238;SDS011;17871;31.584;74.450;2023-12-29T07:10:08;137.40;;;48.78;;
31238;SDS011;17871;31.584;74.450;2023-12-29T07:12:38;142.88;;;50.67;;
31238;SDS011;17871;31.584;74.450;2023-12-29T07:15:07;142.98;;;47.78;;
31238;SDS011;17871;31.584;74.450;2023-12-29T07:17:37;136.20;;;48.30;;
31238;SDS011;17871;31.584;74.450;2023-12-29T07:20:07;148.20;;;48.72;;
31238;SDS011;17871;31.584;74.450;2023-12-29T07:22:37;137.85;;;50.63;;
31238;SDS011;17871;31.584;74.450;2023-12-29T07:25:06;150.02;;;49.67;;
31238;SDS011;17871;31.584;74.450;2023-12-29T07:27:35;141.88;;;52.53;;
31238;SDS011;17871;31.584;74.450;2023-12-29T07:30:05;132.50;;;52.13;;
31238;SDS011;17871;31.584;74.450;2023-12-29T07:32:35;152.95;;;53.55;;
31238;SDS011;17871;31.584;74.450;2023-12-29T07:35:05;181.73;;;69.18;;
31238;SDS011;17871;31.584;74.450;2023-12-29T07:37:35;199.02;;;66.65;;
31238;SDS011;17871;31.584;74.450;2023-12-29T07:40:05;182.75;;;65.90;;
31238;SDS011;17871;31.584;74.450;2023-12-29T07:42:37;200.85;;;75.30;;
31238;SDS011;17871;31.584;74.450;2023-12-29T07:45:07;199.40;;;74.65;;
31238;SDS011;17871;31.584;74.450;2023-12-29T07:47:37;192.80;;;73.82;;
31238;SDS011;17871;31.584;74.450;2023-12-29T07:50:08;194.40;;;67.20;;
31238;SDS011;17871;31.584;74.450;2023-12-29T07:52:42;182.80;;;62.92;;
31238;SDS011;17871;31.584;74.450;2023-12-29T07:55:16;182.20;;;63.22;;
31238;SDS011;17871;31.584;74.450;2023-12-29T07:57:45;173.70;;;63.20;;
31238;SDS011;17871;31.584;74.450;2023-12-29T08:00:16;199.18;;;67.57;;
31238;SDS011;17871;31.584;74.450;2023-12-29T08:02:45;224.15;;;75.63;;
31238;SDS011;17871;31.584;74.450;2023-12-29T08:05:14;231.18;;;74.50;;
31238;SDS011;17871;31.584;74.450;2023-12-29T08:07:45;198.40;;;70.82;;
31238;SDS011;17871;31.584;74.450;2023-12-29T08:10:14;200.93;;;69.60;;
31238;SDS011;17871;31.584;74.450;2023-12-29T08:12:44;184.23;;;64.78;;
31238;SDS011;17871;31.584;74.450;2023-12-29T08:15:13;199.60;;;67.28;;
31238;SDS011;17871;31.584;74.450;2023-12-29T08:17:42;218.15;;;70.22;;
31238;SDS011;17871;31.584;74.450;2023-12-29T08:20:12;258.85;;;83.72;;
31238;SDS011;17871;31.584;74.450;2023-12-29T08:22:41;278.23;;;85.57;;
31238;SDS011;17871;31.584;74.450;2023-12-29T08:25:11;269.83;;;85.32;;
31238;SDS011;17871;31.584;74.450;2023-12-29T08:27:41;266.13;;;86.60;;
31238;SDS011;17871;31.584;74.450;2023-12-29T08:30:10;262.00;;;88.03;;
31238;SDS011;17871;31.584;74.450;2023-12-29T08:32:40;242.23;;;76.38;;
31238;SDS011;17871;31.584;74.450;2023-12-29T08:35:09;237.07;;;73.85;;
31238;SDS011;17871;31.584;74.450;2023-12-29T08:37:38;270.88;;;81.65;;
31238;SDS011;17871;31.584;74.450;2023-12-29T08:40:08;319.02;;;104.38;;
31238;SDS011;17871;31.584;74.450;2023-12-29T08:42:38;311.05;;;107.00;;
31238;SDS011;17871;31.584;74.450;2023-12-29T08:45:08;339.48;;;106.82;;
31238;SDS011;17871;31.584;74.450;2023-12-29T08:47:37;331.83;;;106.63;;
31238;SDS011;17871;31.584;74.450;2023-12-29T08:50:06;315.13;;;106.25;;
31238;SDS011;17871;31.584;74.450;2023-12-29T08:52:36;274.83;;;90.15;;
31238;SDS011;17871;31.584;74.450;2023-12-29T08:55:05;284.02;;;92.15;;
31238;SDS011;17871;31.584;74.450;2023-12-29T08:57:35;232.98;;;81.25;;
31238;SDS011;17871;31.584;74.450;2023-12-29T09:00:05;231.68;;;77.10;;
31238;SDS011;17871;31.584;74.450;2023-12-29T09:02:34;222.75;;;76.65;;
31238;SDS011;17871;31.584;74.450;2023-12-29T09:05:03;223.00;;;77.20;;
31238;SDS011;17871;31.584;74.450;2023-12-29T09:07:33;234.45;;;73.85;;
31238;SDS011;17871;31.584;74.450;2023-12-29T09:10:03;223.00;;;74.22;;
31238;SDS011;17871;31.584;74.450;2023-12-29T09:12:37;212.20;;;71.35;;
31238;SDS011;17871;31.584;74.450;2023-12-29T09:15:07;206.45;;;70.68;;
31238;SDS011;17871;31.584;74.450;2023-12-29T09:17:37;191.68;;;67.55;;
31238;SDS011;17871;31.584;74.450;2023-12-29T09:20:06;192.48;;;68.10;;
31238;SDS011;17871;31.584;74.450;2023-12-29T09:22:38;180.00;;;68.78;;
31238;SDS011;17871;31.584;74.450;2023-12-29T09:25:07;176.88;;;64.22;;
31238;SDS011;17871;31.584;74.450;2023-12-29T09:27:37;184.27;;;65.47;;
31238;SDS011;17871;31.584;74.450;2023-12-29T09:30:08;185.48;;;65.30;;
31238;SDS011;17871;31.584;74.450;2023-12-29T09:32:41;212.02;;;76.00;;
31238;SDS011;17871;31.584;74.450;2023-12-29T09:35:12;209.32;;;73.70;;
31238;SDS011;17871;31.584;74.450;2023-12-29T09:37:42;184.50;;;66.45;;
31238;SDS011;17871;31.584;74.450;2023-12-29T09:40:12;204.25;;;68.20;;
31238;SDS011;17871;31.584;74.450;2023-12-29T09:42:45;188.70;;;67.43;;
31238;SDS011;17871;31.584;74.450;2023-12-29T09:45:15;201.63;;;74.90;;
31238;SDS011;17871;31.584;74.450;2023-12-29T09:47:51;221.52;;;77.03;;
31238;SDS011;17871;31.584;74.450;2023-12-29T09:50:21;191.80;;;71.03;;
31238;SDS011;17871;31.584;74.450;2023-12-29T09:52:51;212.77;;;78.43;;
31238;SDS011;17871;31.584;74.450;2023-12-29T09:55:22;207.90;;;74.90;;
31238;SDS011;17871;31.584;74.450;2023-12-29T09:57:56;264.13;;;72.80;;
31238;SDS011;17871;31.584;74.450;2023-12-29T10:00:29;182.30;;;68.57;;
31238;SDS011;17871;31.584;74.450;2023-12-29T10:02:58;173.40;;;66.05;;
31238;SDS011;17871;31.584;74.450;2023-12-29T10:05:29;171.60;;;66.10;;
31238;SDS011;17871;31.584;74.450;2023-12-29T10:07:59;247.15;;;78.10;;
31238;SDS011;17871;31.584;74.450;2023-12-29T10:10:32;226.15;;;79.97;;
31238;SDS011;17871;31.584;74.450;2023-12-29T10:13:03;236.27;;;85.97;;
31238;SDS011;17871;31.584;74.450;2023-12-29T10:15:35;212.32;;;78.30;;
31238;SDS011;17871;31.584;74.450;2023-12-29T10:20:50;203.15;;;72.10;;
31238;SDS011;17871;31.584;74.450;2023-12-29T10:23:26;172.30;;;66.10;;
31238;SDS011;17871;31.584;74.450;2023-12-29T10:25:57;203.50;;;64.55;;
31238;SDS011;17871;31.584;74.450;2023-12-29T10:28:27;174.25;;;63.65;;
31238;SDS011;17871;31.584;74.450;2023-12-29T10:30:56;178.35;;;63.83;;
31238;SDS011;17871;31.584;74.450;2023-12-29T10:33:26;174.63;;;65.00;;
31238;SDS011;17871;31.584;74.450;2023-12-29T10:35:59;173.55;;;63.75;;
31238;SDS011;17871;31.584;74.450;2023-12-29T10:38:33;152.60;;;58.35;;
31238;SDS011;17871;31.584;74.450;2023-12-29T10:43:45;155.55;;;57.72;;
31238;SDS011;17871;31.584;74.450;2023-12-29T10:46:21;158.85;;;60.22;;
31238;SDS011;17871;31.584;74.450;2023-12-29T10:48:51;167.02;;;63.63;;
31238;SDS011;17871;31.584;74.450;2023-12-29T10:51:26;168.32;;;63.67;;
31238;SDS011;17871;31.584;74.450;2023-12-29T10:53:56;187.20;;;65.85;;
31238;SDS011;17871;31.584;74.450;2023-12-29T10:56:25;182.15;;;64.65;;
31238;SDS011;17871;31.584;74.450;2023-12-29T10:59:01;172.10;;;55.58;;
31238;SDS011;17871;31.584;74.450;2023-12-29T11:01:32;152.02;;;61.10;;
31238;SDS011;17871;31.584;74.450;2023-12-29T11:04:03;182.23;;;66.45;;
31238;SDS011;17871;31.584;74.450;2023-12-29T11:06:43;158.70;;;60.67;;
31238;SDS011;17871;31.584;74.450;2023-12-29T11:09:27;152.05;;;58.28;;
31238;SDS011;17871;31.584;74.450;2023-12-29T11:12:01;157.45;;;58.47;;
31238;SDS011;17871;31.584;74.450;2023-12-29T11:14:31;168.00;;;62.53;;
31238;SDS011;17871;31.584;74.450;2023-12-29T11:17:01;161.45;;;62.58;;
31238;SDS011;17871;31.584;74.450;2023-12-29T11:19:30;169.80;;;62.35;;
31238;SDS011;17871;31.584;74.450;2023-12-29T11:22:01;209.68;;;70.20;;
31238;SDS011;17871;31.584;74.450;2023-12-29T11:24:30;155.05;;;54.55;;
31238;SDS011;17871;31.584;74.450;2023-12-29T11:27:08;130.98;;;46.75;;
31238;SDS011;17871;31.584;74.450;2023-12-29T11:29:37;151.48;;;48.97;;
31238;SDS011;17871;31.584;74.450;2023-12-29T11:32:08;148.00;;;52.83;;
31238;SDS011;17871;31.584;74.450;2023-12-29T11:34:49;157.35;;;54.50;;
31238;SDS011;17871;31.584;74.450;2023-12-29T11:42:49;177.70;;;62.03;;
31238;SDS011;17871;31.584;74.450;2023-12-29T11:45:31;176.40;;;62.90;;
31238;SDS011;17871;31.584;74.450;2023-12-29T11:48:04;137.93;;;50.38;;
31238;SDS011;17871;31.584;74.450;2023-12-29T11:50:40;136.65;;;51.75;;
31238;SDS011;17871;31.584;74.450;2023-12-29T11:53:09;133.98;;;54.40;;
31238;SDS011;17871;31.584;74.450;2023-12-29T11:55:58;151.50;;;54.92;;
31238;SDS011;17871;31.584;74.450;2023-12-29T11:58:28;152.55;;;55.38;;
31238;SDS011;17871;31.584;74.450;2023-12-29T12:00:57;138.18;;;52.95;;
31238;SDS011;17871;31.584;74.450;2023-12-29T12:03:28;134.52;;;54.10;;
31238;SDS011;17871;31.584;74.450;2023-12-29T12:05:57;150.35;;;52.17;;
31238;SDS011;17871;31.584;74.450;2023-12-29T12:13:49;168.75;;;59.80;;
31238;SDS011;17871;31.584;74.450;2023-12-29T12:19:11;156.70;;;56.67;;
31238;SDS011;17871;31.584;74.450;2023-12-29T12:21:41;159.15;;;57.15;;
31238;SDS011;17871;31.584;74.450;2023-12-29T12:24:11;165.93;;;60.97;;
31238;SDS011;17871;31.584;74.450;2023-12-29T12:26:40;187.30;;;64.40;;
31238;SDS011;17871;31.584;74.450;2023-12-29T12:29:10;180.10;;;64.60;;
31238;SDS011;17871;31.584;74.450;2023-12-29T12:31:52;169.77;;;61.10;;
31238;SDS011;17871;31.584;74.450;2023-12-29T12:34:21;179.57;;;67.32;;
31238;SDS011;17871;31.584;74.450;2023-12-29T12:36:52;188.40;;;63.72;;
31238;SDS011;17871;31.584;74.450;2023-12-29T12:39:24;171.05;;;62.60;;
31238;SDS011;17871;31.584;74.450;2023-12-29T12:41:53;181.80;;;62.88;;
31238;SDS011;17871;31.584;74.450;2023-12-29T12:44:23;190.90;;;61.35;;
31238;SDS011;17871;31.584;74.450;2023-12-29T12:46:57;194.10;;;64.03;;
31238;SDS011;17871;31.584;74.450;2023-12-29T12:49:28;196.43;;;66.68;;
31238;SDS011;17871;31.584;74.450;2023-12-29T12:51:59;206.57;;;64.07;;
31238;SDS011;17871;31.584;74.450;2023-12-29T12:54:28;209.77;;;67.35;;
31238;SDS011;17871;31.584;74.450;2023-12-29T12:57:00;191.85;;;66.43;;
31238;SDS011;17871;31.584;74.450;2023-12-29T12:59:29;200.85;;;70.60;;
31238;SDS011;17871;31.584;74.450;2023-12-29T13:01:59;201.93;;;72.82;;
31238;SDS011;17871;31.584;74.450;2023-12-29T13:04:29;196.80;;;73.05;;
31238;SDS011;17871;31.584;74.450;2023-12-29T13:06:58;235.52;;;83.70;;
31238;SDS011;17871;31.584;74.450;2023-12-29T13:09:28;244.38;;;86.70;;
31238;SDS011;17871;31.584;74.450;2023-12-29T13:12:07;234.63;;;83.72;;
31238;SDS011;17871;31.584;74.450;2023-12-29T13:14:37;240.82;;;83.28;;
31238;SDS011;17871;31.584;74.450;2023-12-29T13:17:10;240.40;;;83.40;;
31238;SDS011;17871;31.584;74.450;2023-12-29T13:19:40;234.40;;;78.43;;
31238;SDS011;17871;31.584;74.450;2023-12-29T13:22:11;242.55;;;82.78;;
31238;SDS011;17871;31.584;74.450;2023-12-29T13:24:44;211.50;;;80.90;;
31238;SDS011;17871;31.584;74.450;2023-12-29T13:27:14;216.10;;;78.90;;
31238;SDS011;17871;31.584;74.450;2023-12-29T13:29:44;230.10;;;81.25;;
31238;SDS011;17871;31.584;74.450;2023-12-29T13:32:15;220.15;;;77.22;;
31238;SDS011;17871;31.584;74.450;2023-12-29T13:37:24;235.20;;;82.13;;
31238;SDS011;17871;31.584;74.450;2023-12-29T13:39:57;242.13;;;85.05;;
31238;SDS011;17871;31.584;74.450;2023-12-29T13:42:27;254.32;;;88.50;;
31238;SDS011;17871;31.584;74.450;2023-12-29T13:47:28;204.25;;;75.97;;
31238;SDS011;17871;31.584;74.450;2023-12-29T13:49:58;223.82;;;85.15;;
31238;SDS011;17871;31.584;74.450;2023-12-29T13:52:27;249.38;;;88.63;;
31238;SDS011;17871;31.584;74.450;2023-12-29T13:54:57;230.48;;;93.90;;
31238;SDS011;17871;31.584;74.450;2023-12-29T13:57:33;238.27;;;95.97;;
31238;SDS011;17871;31.584;74.450;2023-12-29T14:00:18;232.23;;;94.80;;
31238;SDS011;17871;31.584;74.450;2023-12-29T14:08:16;241.13;;;97.78;;
31238;SDS011;17871;31.584;74.450;2023-12-29T14:10:47;239.05;;;101.15;;
31238;SDS011;17871;31.584;74.450;2023-12-29T14:13:17;236.18;;;97.28;;
31238;SDS011;17871;31.584;74.450;2023-12-29T14:15:46;244.07;;;92.28;;
31238;SDS011;17871;31.584;74.450;2023-12-29T14:23:21;249.48;;;90.35;;
31238;SDS011;17871;31.584;74.450;2023-12-29T14:25:50;247.57;;;96.93;;
31238;SDS011;17871;31.584;74.450;2023-12-29T14:28:20;265.23;;;103.00;;
31238;SDS011;17871;31.584;74.450;2023-12-29T14:30:51;247.93;;;100.03;;
31238;SDS011;17871;31.584;74.450;2023-12-29T14:33:30;260.27;;;101.97;;
31238;SDS011;17871;31.584;74.450;2023-12-29T14:35:59;267.58;;;101.40;;
31238;SDS011;17871;31.584;74.450;2023-12-29T14:38:29;258.00;;;101.28;;
31238;SDS011;17871;31.584;74.450;2023-12-29T14:40:58;266.85;;;101.50;;
31238;SDS011;17871;31.584;74.450;2023-12-29T14:43:28;257.13;;;97.45;;
31238;SDS011;17871;31.584;74.450;2023-12-29T14:45:57;237.45;;;92.85;;
31238;SDS011;17871;31.584;74.450;2023-12-29T14:48:26;222.60;;;82.43;;
31238;SDS011;17871;31.584;74.450;2023-12-29T14:50:56;213.55;;;77.78;;
31238;SDS011;17871;31.584;74.450;2023-12-29T14:53:26;229.23;;;78.15;;
31238;SDS011;17871;31.584;74.450;2023-12-29T14:55:56;174.98;;;71.28;;
31238;SDS011;17871;31.584;74.450;2023-12-29T14:58:25;191.82;;;68.80;;
31238;SDS011;17871;31.584;74.450;2023-12-29T15:00:55;199.82;;;68.35;;